KGCK/GCK METAR and TAF weather

Enter ICAO airport designator
Station Type Date Time Source
KGCK METAR 2019/12/08 13:54 UTC NOAA

KGCK 081354Z 34005KT 10SM CLR 02/M01 A2982 RMK AO2 SLP105 T00171006


Station Type Date Time Source
KGCK Decoded METAR 2019/12/08 13:54 UTC NOAA

GARDEN CITY REGIONAL AIRPORT, KS, United States (KGCK) 37-55N 100-43W 877M
Dec 08, 2019 - 08:54 AM EST / 2019.12.08 1354 UTC
Wind: from the NNW (340 degrees) at 6 MPH (5 KT):0
Visibility: 10 mile(s):0
Sky conditions: clear
Temperature: 35.1 F (1.7 C)
Dew Point: 30.9 F (-0.6 C)
Relative Humidity: 84%
Pressure (altimeter): 29.82 in. Hg (1009 hPa)
ob: KGCK 081354Z 34005KT 10SM CLR 02/M01 A2982 RMK AO2 SLP105 T00171006
cycle: 14

Station Type Date Time Source
KGCK TAF 2019/12/08 12:22 UTC NOAA

TAF KGCK 081120Z 0812/0912 VRB06KT P6SM SCT250
FM082000 VRB06KT P6SM BKN180
FM091000 34015G25KT P6SM BKN080

Example: see airport list